Time;durP1;ratioP1;P1;durP2;ratioP2;P2;SDS_P1;SDS_P2;PMS_P1;PMS_P2;Temp;Humidity;BMP_temperature;BMP_pressure;BME280_temperature;BME280_humidity;BME280_pressure;Samples;Min_cycle;Max_cycle;Signal;HPM_P1;HPM_P2
2023/04/20 00:01:01;;;;;;;;;3.00;3.00;;;;;20.95;54.95;101321.73;112049;1265;20319;-38
2023/04/20 00:03:28;;;;;;;;;1.00;1.00;;;;;20.95;55.18;101320.05;111781;1265;19543;-38
2023/04/20 00:05:56;;;;;;;;;1.00;1.00;;;;;20.95;55.05;101322.91;112011;1250;21020;-38
2023/04/20 00:08:23;;;;;;;;;3.00;3.00;;;;;20.95;55.14;101318.45;111786;1265;20132;-38
2023/04/20 00:10:51;;;;;;;;;2.00;2.00;;;;;20.95;55.04;101322.95;112046;1265;19534;-38
2023/04/20 00:13:18;;;;;;;;;3.00;1.00;;;;;20.95;55.10;101320.05;111845;1253;21194;-38
2023/04/20 00:15:45;;;;;;;;;2.33;2.33;;;;;20.95;55.14;101317.36;112053;1265;20008;-38
2023/04/20 00:18:13;;;;;;;;;3.00;3.00;;;;;20.95;55.20;101321.35;111882;1250;19886;-38
2023/04/20 00:20:41;;;;;;;;;1.00;1.00;;;;;20.96;55.12;101325.36;112072;1265;20739;-39
2023/04/20 00:23:08;;;;;;;;;3.00;3.00;;;;;20.95;54.98;101321.27;111847;1250;20291;-39
2023/04/20 00:25:35;;;;;;;;;1.00;1.00;;;;;20.94;55.07;101319.27;112049;1259;18715;-38
2023/04/20 00:28:03;;;;;;;;;3.00;3.00;;;;;20.94;55.01;101318.11;111843;1250;20693;-38
2023/04/20 00:30:31;;;;;;;;;1.00;1.00;;;;;20.95;55.14;101314.44;112007;1265;21491;-38
2023/04/20 00:32:58;;;;;;;;;1.00;1.00;;;;;20.95;55.18;101315.89;111952;1265;19630;-38
2023/04/20 00:35:26;;;;;;;;;1.00;1.00;;;;;20.94;55.06;101320.32;112084;1265;19358;-38
2023/04/20 00:37:53;;;;;;;;;1.00;1.00;;;;;20.94;55.06;101317.06;111952;1265;20115;-38
2023/04/20 00:40:21;;;;;;;;;3.00;3.00;;;;;20.94;55.11;101318.66;112095;1265;18574;-38
2023/04/20 00:42:48;;;;;;;;;3.00;3.00;;;;;20.94;54.83;101314.33;111979;1250;20740;-38
2023/04/20 00:45:15;;;;;;;;;1.00;1.00;;;;;20.94;55.04;101317.09;112114;1265;20134;-38
2023/04/20 00:47:43;;;;;;;;;1.67;1.67;;;;;20.94;54.84;101314.30;111942;1250;20854;-41
2023/04/20 00:50:10;;;;;;;;;3.00;3.00;;;;;20.94;54.95;101312.91;112132;1251;20901;-38
2023/04/20 00:52:38;;;;;;;;;1.00;1.00;;;;;20.94;54.84;101311.09;111984;1265;20206;-37
2023/04/20 00:55:05;;;;;;;;;3.00;3.00;;;;;20.94;55.18;101310.85;112108;1265;20719;-39
2023/04/20 00:57:32;;;;;;;;;2.00;2.00;;;;;20.93;54.93;101309.49;111991;1265;20819;-38
2023/04/20 01:00:00;;;;;;;;;1.00;1.00;;;;;20.93;55.04;101306.64;112139;1265;20076;-38
2023/04/20 01:02:27;;;;;;;;;1.00;1.00;;;;;20.93;54.85;101306.64;111947;1265;19769;-38
2023/04/20 01:04:55;;;;;;;;;2.00;2.00;;;;;20.94;54.92;101308.74;112139;1251;20748;-39
2023/04/20 01:07:23;;;;;;;;;3.00;3.00;;;;;20.94;54.90;101308.91;111945;1251;21605;-38
2023/04/20 01:09:50;;;;;;;;;1.00;1.00;;;;;20.94;54.79;101306.35;112075;1265;19603;-38
2023/04/20 01:12:18;;;;;;;;;1.00;1.00;;;;;20.94;54.80;101304.17;111902;1265;19341;-38
2023/04/20 01:14:46;;;;;;;;;3.00;3.00;;;;;20.94;54.92;101308.67;112068;1250;21549;-38
2023/04/20 01:17:13;;;;;;;;;1.00;1.00;;;;;20.94;55.01;101305.14;111913;1265;18814;-38
2023/04/20 01:19:43;;;;;;;;;1.00;1.00;;;;;20.93;54.87;101300.27;112059;1265;19394;-38
2023/04/20 01:22:11;;;;;;;;;1.00;1.00;;;;;20.93;54.78;101299.89;112079;1265;20179;-38
2023/04/20 01:24:38;;;;;;;;;4.00;3.00;;;;;20.93;54.96;101301.95;111913;1265;18657;-36
2023/04/20 01:27:06;;;;;;;;;2.00;1.00;;;;;20.93;54.79;101299.36;112086;1265;19390;-38
2023/04/20 01:29:33;;;;;;;;;1.00;1.00;;;;;20.93;54.92;101302.98;111891;1265;21380;-38
2023/04/20 01:32:01;;;;;;;;;2.00;2.00;;;;;20.93;54.91;101302.86;112060;1265;18688;-38
2023/04/20 01:34:28;;;;;;;;;1.00;1.00;;;;;20.93;54.97;101294.84;111897;1265;20702;-39
2023/04/20 01:36:56;;;;;;;;;1.00;1.00;;;;;20.94;54.86;101298.25;112070;1265;20254;-37
2023/04/20 01:39:23;;;;;;;;;1.00;1.00;;;;;20.93;54.70;101295.37;111903;1265;19647;-37
2023/04/20 01:41:50;;;;;;;;;1.00;1.00;;;;;20.93;54.87;101295.34;112036;1265;20759;-38
2023/04/20 01:44:18;;;;;;;;;3.00;3.00;;;;;20.93;54.73;101294.52;111910;1250;21489;-37
2023/04/20 01:46:45;;;;;;;;;3.00;3.00;;;;;20.93;54.70;101291.77;112034;1265;18656;-38
2023/04/20 01:49:13;;;;;;;;;;;;;;;20.93;54.84;101292.52;111894;1250;21736;-37
2023/04/20 01:51:40;;;;;;;;;1.00;1.00;;;;;20.93;54.74;101292.31;112100;1250;21655;-38
2023/04/20 01:54:08;;;;;;;;;2.00;2.00;;;;;20.93;54.80;101294.64;111896;1265;19601;-37
2023/04/20 01:56:35;;;;;;;;;2.00;1.00;;;;;20.93;54.81;101295.04;112117;1265;19223;-38
2023/04/20 01:59:02;;;;;;;;;3.00;3.00;;;;;20.92;54.80;101292.00;111929;1250;21597;-39
2023/04/20 02:01:30;;;;;;;;;3.00;3.00;;;;;20.93;54.83;101299.19;112117;1251;19711;-36
2023/04/20 02:03:58;;;;;;;;;4.00;4.00;;;;;20.92;54.76;101295.64;111932;1258;19536;-37
2023/04/20 02:06:25;;;;;;;;;1.00;1.00;;;;;20.92;54.79;101293.33;112127;1251;21532;-38
2023/04/20 02:08:52;;;;;;;;;3.00;3.00;;;;;20.92;54.57;101294.73;111919;1265;19564;-37
2023/04/20 02:11:21;;;;;;;;;3.00;1.00;;;;;20.92;54.62;101293.52;112109;1265;19366;-37
2023/04/20 02:13:48;;;;;;;;;3.00;3.00;;;;;20.92;54.81;101287.27;111858;1259;21719;-37
2023/04/20 02:16:16;;;;;;;;;1.00;1.00;;;;;20.93;54.77;101295.41;112042;1265;19602;-37
2023/04/20 02:18:44;;;;;;;;;3.00;3.00;;;;;20.92;54.77;101295.10;111897;1251;20768;-37
2023/04/20 02:21:12;;;;;;;;;;;;;;;20.92;54.62;101297.85;111987;1265;21574;-37
2023/04/20 02:23:39;;;;;;;;;1.00;1.00;;;;;20.93;54.57;101297.20;111843;1265;18681;-37
2023/04/20 02:26:07;;;;;;;;;1.00;1.00;;;;;20.93;54.65;101301.38;111993;1265;19365;-37
2023/04/20 02:28:34;;;;;;;;;3.00;3.00;;;;;20.92;54.61;101296.01;111791;1265;21620;-38
2023/04/20 02:31:02;;;;;;;;;1.00;1.00;;;;;20.94;54.55;101307.11;111975;1250;19638;-38
2023/04/20 02:33:29;;;;;;;;;2.00;1.00;;;;;20.92;54.68;101303.10;111850;1265;20660;-38
2023/04/20 02:35:57;;;;;;;;;1.00;1.00;;;;;20.93;54.54;101304.09;111990;1265;20123;-39
2023/04/20 02:38:24;;;;;;;;;1.00;1.00;;;;;20.92;54.73;101305.83;111829;1250;19941;-39
2023/04/20 02:40:52;;;;;;;;;1.67;1.67;;;;;20.92;54.71;101304.22;111981;1250;21934;-39
2023/04/20 02:43:19;;;;;;;;;3.00;3.00;;;;;20.93;54.59;101305.73;111803;1265;21382;-39
2023/04/20 02:45:46;;;;;;;;;1.00;1.00;;;;;20.92;54.50;101308.89;112035;1265;19766;-39
2023/04/20 02:48:14;;;;;;;;;1.00;1.00;;;;;20.92;54.55;101307.14;111830;1265;19341;-39
2023/04/20 02:50:41;;;;;;;;;1.00;1.00;;;;;20.93;54.57;101311.02;112029;1265;21635;-40
2023/04/20 02:53:09;;;;;;;;;1.00;1.00;;;;;20.93;54.58;101311.56;111868;1250;19662;-39
2023/04/20 02:55:36;;;;;;;;;3.00;3.00;;;;;20.92;54.57;101311.23;112030;1265;20733;-40
2023/04/20 02:58:03;;;;;;;;;3.00;3.00;;;;;20.93;54.53;101306.86;111814;1259;21693;-39
2023/04/20 03:00:31;;;;;;;;;3.00;3.00;;;;;20.92;54.56;101309.07;112051;1260;18690;-38
2023/04/20 03:02:58;;;;;;;;;1.00;1.00;;;;;20.93;54.62;101306.83;111854;1265;21938;-38
2023/04/20 03:05:26;;;;;;;;;1.00;1.00;;;;;20.92;54.55;101309.84;112032;1250;21544;-38
2023/04/20 03:07:53;;;;;;;;;1.00;1.00;;;;;20.92;54.59;101308.54;111854;1251;19659;-37
2023/04/20 03:10:21;;;;;;;;;1.00;1.00;;;;;20.91;54.58;101311.98;112074;1265;19236;-38
2023/04/20 03:12:48;;;;;;;;;1.00;1.00;;;;;20.92;54.52;101313.15;111870;1265;21557;-38
2023/04/20 03:15:17;;;;;;;;;1.00;1.00;;;;;20.92;54.77;101312.19;112042;1265;19758;-38
2023/04/20 03:17:45;;;;;;;;;1.00;1.00;;;;;20.92;54.59;101306.77;111770;1265;21228;-38
2023/04/20 03:20:13;;;;;;;;;6.00;3.00;;;;;20.91;54.58;101306.84;111866;1250;22856;-38
2023/04/20 03:22:40;;;;;;;;;1.00;1.00;;;;;20.91;54.70;101306.98;112053;1257;18692;-39
2023/04/20 03:25:08;;;;;;;;;1.00;1.00;;;;;20.93;54.50;101315.02;111870;1265;19341;-39
2023/04/20 03:27:35;;;;;;;;;1.00;1.00;;;;;20.91;54.50;101325.34;112060;1250;22943;-38
2023/04/20 03:30:03;;;;;;;;;1.00;1.00;;;;;20.91;54.54;101324.12;111868;1250;20831;-39
2023/04/20 03:32:30;;;;;;;;;1.00;1.00;;;;;20.92;54.56;101327.28;112082;1265;19376;-38
2023/04/20 03:34:58;;;;;;;;;3.00;3.00;;;;;20.92;54.56;101324.39;111863;1265;21494;-39
2023/04/20 03:37:25;;;;;;;;;1.00;1.00;;;;;20.92;54.43;101326.54;112079;1260;18736;-39
2023/04/20 03:39:52;;;;;;;;;1.00;1.00;;;;;20.92;54.46;101329.67;111861;1260;20725;-39
2023/04/20 03:42:20;;;;;;;;;1.00;1.00;;;;;20.92;54.59;101333.48;112090;1250;21632;-39
2023/04/20 03:44:47;;;;;;;;;1.00;1.00;;;;;20.92;54.61;101333.65;111900;1265;18798;-38
2023/04/20 03:47:15;;;;;;;;;2.00;2.00;;;;;20.92;54.48;101332.77;112055;1251;20462;-39
2023/04/20 03:49:42;;;;;;;;;1.67;1.67;;;;;20.91;54.53;101337.89;111878;1265;21453;-39
2023/04/20 03:52:10;;;;;;;;;3.00;3.00;;;;;20.91;54.45;101328.47;112016;1265;18617;-39
2023/04/20 03:54:37;;;;;;;;;3.00;3.00;;;;;20.92;54.43;101327.63;111938;1250;19866;-39
2023/04/20 03:57:04;;;;;;;;;1.00;1.00;;;;;20.91;54.42;101324.86;111936;1250;21702;-39
2023/04/20 03:59:32;;;;;;;;;1.00;1.00;;;;;20.92;54.47;101324.35;111917;1265;18731;-37
2023/04/20 04:02:00;;;;;;;;;1.00;1.00;;;;;20.91;54.42;101326.42;111756;1260;19368;-37
2023/04/20 04:04:27;;;;;;;;;1.00;1.00;;;;;20.91;54.47;101333.55;111868;1259;20336;-37
2023/04/20 04:06:55;;;;;;;;;2.33;2.33;;;;;20.92;54.54;101334.94;112125;1250;19618;-37
2023/04/20 04:09:25;;;;;;;;;1.00;1.00;;;;;20.92;54.44;101332.77;112003;1265;19431;-37
2023/04/20 04:11:52;;;;;;;;;1.00;1.00;;;;;20.91;54.51;101337.77;111988;1250;22725;-37
2023/04/20 04:14:20;;;;;;;;;1.00;1.00;;;;;20.91;54.43;101337.77;112126;1265;19630;-37
2023/04/20 04:16:47;;;;;;;;;1.00;1.00;;;;;20.91;54.48;101335.25;111957;1265;20908;-38
2023/04/20 04:19:15;;;;;;;;;1.00;1.00;;;;;20.91;54.48;101336.99;112111;1257;20106;-38
2023/04/20 04:21:42;;;;;;;;;3.00;3.00;;;;;20.92;54.40;101339.48;112003;1250;21070;-38
2023/04/20 04:24:09;;;;;;;;;2.33;2.33;;;;;20.92;54.33;101340.56;111984;1265;20535;-38
2023/04/20 04:26:37;;;;;;;;;2.33;2.33;;;;;20.91;54.45;101337.19;112002;1265;20168;-38
2023/04/20 04:29:05;;;;;;;;;1.00;1.00;;;;;20.91;54.39;101346.98;111884;1265;18754;-39
2023/04/20 04:31:33;;;;;;;;;3.00;3.00;;;;;20.91;54.52;101346.63;111970;1265;19648;-38
2023/04/20 04:34:01;;;;;;;;;1.00;1.00;;;;;20.91;54.28;101350.14;112062;1250;21598;-38
2023/04/20 04:36:28;;;;;;;;;3.00;3.00;;;;;20.91;54.37;101351.42;111914;1265;19922;-39
2023/04/20 04:38:56;;;;;;;;;1.00;1.00;;;;;20.90;54.49;101354.91;112051;1265;20783;-38
2023/04/20 04:41:24;;;;;;;;;1.00;1.00;;;;;20.90;54.42;101354.91;111942;1250;21582;-38
2023/04/20 04:43:52;;;;;;;;;2.00;2.00;;;;;20.91;54.50;101356.27;112039;1250;20801;-38
2023/04/20 04:46:20;;;;;;;;;3.00;3.00;;;;;20.92;54.44;101357.74;111886;1258;21917;-38
2023/04/20 04:48:47;;;;;;;;;3.00;3.00;;;;;20.91;54.29;101357.66;111978;1265;20118;-38
2023/04/20 04:51:15;;;;;;;;;1.00;1.00;;;;;20.91;54.26;101365.53;112116;1265;21038;-40
2023/04/20 04:53:43;;;;;;;;;3.00;3.00;;;;;20.92;54.30;101370.03;111975;1265;20706;-37
2023/04/20 04:56:12;;;;;;;;;1.00;1.00;;;;;20.92;54.36;101370.67;112089;1250;21492;-38
2023/04/20 04:58:39;;;;;;;;;1.00;1.00;;;;;20.92;54.31;101370.64;111896;1265;18792;-39
2023/04/20 05:01:07;;;;;;;;;3.00;3.00;;;;;20.93;54.43;101369.92;112012;1265;19703;-38
2023/04/20 05:03:34;;;;;;;;;3.00;3.00;;;;;20.92;54.39;101372.11;111874;1251;21541;-38
2023/04/20 05:06:02;;;;;;;;;3.00;3.00;;;;;20.93;54.38;101373.29;112012;1250;21074;-38
2023/04/20 05:08:29;;;;;;;;;1.00;1.00;;;;;20.94;54.13;101376.15;111844;1265;20732;-38
2023/04/20 05:10:57;;;;;;;;;1.00;1.00;;;;;20.94;54.19;101382.46;112054;1265;19993;-38
2023/04/20 05:13:24;;;;;;;;;1.00;1.00;;;;;20.94;54.43;101380.07;111969;1254;19682;-38
2023/04/20 05:15:51;;;;;;;;;1.00;1.00;;;;;20.93;54.26;101381.83;112019;1265;21893;-37
2023/04/20 05:18:19;;;;;;;;;1.00;1.00;;;;;20.95;54.24;101380.89;111858;1265;20586;-38
2023/04/20 05:20:46;;;;;;;;;1.00;1.00;;;;;20.98;54.45;101382.91;112079;1250;19644;-38
2023/04/20 05:23:14;;;;;;;;;4.00;3.00;;;;;21.02;54.33;101390.36;111888;1265;21867;-38
2023/04/20 05:25:41;;;;;;;;;6.00;4.00;;;;;21.05;54.57;101385.06;112019;1265;20173;-38
2023/04/20 05:28:09;;;;;;;;;16.00;16.00;;;;;21.11;55.01;101390.98;111873;1265;18897;-38
2023/04/20 05:30:36;;;;;;;;;57.50;52.00;;;;;21.16;55.46;101388.17;112044;1254;20939;-39
2023/04/20 05:33:04;;;;;;;;;53.00;47.00;;;;;21.19;56.23;101386.05;111867;1265;21483;-39
2023/04/20 05:35:31;;;;;;;;;57.67;50.67;;;;;21.24;56.83;101387.26;112021;1265;18581;-39
2023/04/20 05:38:01;;;;;;;;;55.33;46.67;;;;;21.27;57.32;101393.89;111866;1265;19346;-40
2023/04/20 05:40:28;;;;;;;;;47.00;43.00;;;;;21.29;57.16;101399.54;111850;1265;20107;-40
2023/04/20 05:42:56;;;;;;;;;40.00;34.50;;;;;21.25;57.01;101402.66;112010;1265;19236;-40
2023/04/20 05:45:23;;;;;;;;;31.00;29.00;;;;;21.18;56.61;101402.05;111863;1265;19589;-40
2023/04/20 05:47:51;;;;;;;;;26.50;26.00;;;;;21.11;56.16;101406.64;112037;1251;21563;-40
2023/04/20 05:50:18;;;;;;;;;28.00;25.00;;;;;21.06;55.52;101402.02;111859;1250;18977;-40
2023/04/20 05:52:46;;;;;;;;;20.50;20.00;;;;;21.04;55.05;101399.40;112037;1265;19479;-40
2023/04/20 05:55:13;;;;;;;;;26.50;25.00;;;;;21.00;54.58;101403.48;111858;1257;20144;-39
2023/04/20 05:57:41;;;;;;;;;27.50;23.50;;;;;20.83;52.92;101403.95;112027;1265;18708;-40
2023/04/20 06:00:10;;;;;;;;;27.00;24.00;;;;;20.83;52.29;101407.09;111803;1265;19658;-40
2023/04/20 06:02:37;;;;;;;;;22.00;22.00;;;;;20.84;51.55;101401.16;111888;1250;21765;-39
2023/04/20 06:05:05;;;;;;;;;24.50;22.50;;;;;20.89;51.16;101404.70;112108;1265;19967;-41
2023/04/20 06:07:32;;;;;;;;;22.00;21.50;;;;;20.91;50.58;101404.98;111931;1250;20897;-39
2023/04/20 06:10:00;;;;;;;;;22.00;21.00;;;;;20.91;50.34;101407.57;112084;1265;21450;-40
2023/04/20 06:12:28;;;;;;;;;22.00;21.00;;;;;20.83;49.82;101404.50;111874;1265;18843;-39
2023/04/20 06:14:56;;;;;;;;;19.50;18.50;;;;;20.85;49.50;101407.74;112049;1265;20823;-41
2023/04/20 06:17:23;;;;;;;;;27.50;24.00;;;;;20.85;49.11;101409.23;111812;1251;21529;-40
2023/04/20 06:19:51;;;;;;;;;19.00;18.50;;;;;20.88;48.77;101412.73;112016;1265;18863;-40
2023/04/20 06:22:18;;;;;;;;;25.00;22.00;;;;;20.82;48.22;101411.92;111835;1265;20801;-40
2023/04/20 06:24:46;;;;;;;;;22.00;21.00;;;;;20.72;47.59;101413.45;112046;1250;21417;-41
2023/04/20 06:27:13;;;;;;;;;20.00;19.00;;;;;20.61;47.50;101412.33;111841;1265;19989;-40
2023/04/20 06:29:40;;;;;;;;;22.00;21.00;;;;;20.70;47.20;101412.96;112069;1265;19693;-40
2023/04/20 06:32:08;;;;;;;;;21.00;20.00;;;;;20.74;46.90;101421.80;111875;1265;21928;-41
2023/04/20 06:34:35;;;;;;;;;18.50;18.00;;;;;20.78;46.66;101424.35;112061;1265;19988;-40
2023/04/20 06:37:03;;;;;;;;;21.50;20.00;;;;;20.78;46.46;101422.27;111852;1265;21001;-40
2023/04/20 06:39:31;;;;;;;;;18.67;18.00;;;;;20.80;46.41;101420.25;112045;1250;21484;-40
2023/04/20 06:41:58;;;;;;;;;27.00;24.00;;;;;20.79;46.16;101416.23;111848;1265;20281;-40
2023/04/20 06:44:26;;;;;;;;;18.00;18.00;;;;;20.79;46.22;101419.15;112003;1259;20791;-41
2023/04/20 06:46:53;;;;;;;;;18.00;16.00;;;;;20.78;45.97;101419.58;111821;1265;20245;-40
2023/04/20 06:49:20;;;;;;;;;20.00;19.00;;;;;20.77;46.29;101423.52;112007;1265;19933;-41
2023/04/20 06:51:48;;;;;;;;;20.00;20.00;;;;;20.75;45.98;101426.30;111848;1265;19397;-40
2023/04/20 06:54:15;;;;;;;;;19.00;18.00;;;;;20.73;46.08;101429.27;112068;1250;21698;-41
2023/04/20 06:56:43;;;;;;;;;21.00;18.00;;;;;20.70;45.85;101431.38;111868;1265;20296;-41
2023/04/20 06:59:10;;;;;;;;;20.33;18.00;;;;;20.69;45.74;101432.91;112054;1265;22016;-41
2023/04/20 07:01:38;;;;;;;;;18.50;17.00;;;;;20.68;45.73;101429.73;111882;1265;20156;-39
2023/04/20 07:04:05;;;;;;;;;19.00;18.00;;;;;20.65;45.42;101429.68;112098;1250;19997;-38
2023/04/20 07:06:33;;;;;;;;;15.50;14.00;;;;;20.65;45.65;101432.58;111881;1265;20968;-40
2023/04/20 07:09:00;;;;;;;;;21.00;18.00;;;;;20.69;45.36;101431.04;112074;1252;22551;-41
2023/04/20 07:11:28;;;;;;;;;21.00;19.00;;;;;20.69;45.43;101429.77;111872;1265;18836;-39
2023/04/20 07:13:55;;;;;;;;;22.00;21.00;;;;;20.69;45.31;101434.53;112113;1265;19784;-41
2023/04/20 07:16:22;;;;;;;;;23.50;19.00;;;;;20.68;45.11;101437.19;111912;1265;21479;-40
2023/04/20 07:18:50;;;;;;;;;23.00;19.00;;;;;20.69;45.30;101441.48;112091;1265;20053;-40
2023/04/20 07:21:17;;;;;;;;;19.00;18.00;;;;;20.67;45.16;101446.30;111926;1265;20846;-40
2023/04/20 07:23:45;;;;;;;;;21.00;19.00;;;;;20.73;45.13;101444.69;112054;1254;22874;-41
2023/04/20 07:26:12;;;;;;;;;21.00;21.00;;;;;20.71;45.02;101447.75;111885;1265;19995;-40
2023/04/20 07:28:41;;;;;;;;;21.00;19.00;;;;;20.67;44.99;101444.36;112118;1265;19446;-42
2023/04/20 07:31:08;;;;;;;;;23.00;19.00;;;;;20.66;45.06;101448.51;111836;1265;20287;-42
2023/04/20 07:33:36;;;;;;;;;21.00;18.00;;;;;20.71;44.88;101448.80;112055;1250;20387;-39
2023/04/20 07:36:05;;;;;;;;;18.50;17.00;;;;;20.75;45.15;101451.20;111826;1265;19848;-41
2023/04/20 07:38:32;;;;;;;;;19.00;15.00;;;;;20.78;45.59;101459.13;111916;1250;21380;-39
2023/04/20 07:41:00;;;;;;;;;22.00;18.50;;;;;20.76;45.67;101463.44;111914;1251;20123;-38
2023/04/20 07:43:27;;;;;;;;;22.00;18.00;;;;;20.72;45.70;101462.96;111955;1250;19703;-38
2023/04/20 07:45:54;;;;;;;;;24.00;21.00;;;;;20.70;45.56;101464.05;111897;1250;20490;-39
2023/04/20 07:48:22;;;;;;;;;21.00;19.00;;;;;20.64;45.22;101464.50;111924;1265;18742;-39
2023/04/20 07:50:49;;;;;;;;;24.00;22.00;;;;;20.63;45.64;101470.89;111762;1250;21875;-39
2023/04/20 07:53:17;;;;;;;;;18.67;18.33;;;;;20.65;45.42;101471.48;111954;1250;20094;-39
2023/04/20 07:55:44;;;;;;;;;27.33;23.33;;;;;20.62;45.39;101464.01;111754;1254;20368;-39
2023/04/20 07:58:12;;;;;;;;;18.00;16.00;;;;;20.63;45.46;101465.89;111927;1265;21152;-40
2023/04/20 08:00:40;;;;;;;;;24.00;22.00;;;;;20.65;45.46;101466.55;112108;1260;21687;-38
2023/04/20 08:03:07;;;;;;;;;24.00;21.50;;;;;20.52;45.21;101469.61;111907;1265;18947;-39
2023/04/20 08:05:35;;;;;;;;;22.00;19.00;;;;;20.42;45.27;101468.66;112087;1265;19345;-40
2023/04/20 08:08:02;;;;;;;;;19.00;19.00;;;;;20.54;45.01;101468.77;111895;1265;22018;-40
2023/04/20 08:10:30;;;;;;;;;28.00;24.50;;;;;20.60;44.99;101472.16;111992;1265;18992;-39
2023/04/20 08:12:57;;;;;;;;;21.00;21.00;;;;;20.60;44.81;101473.73;111910;1250;19625;-38
2023/04/20 08:15:24;;;;;;;;;22.00;21.00;;;;;20.61;44.80;101471.08;111854;1250;21580;-38
2023/04/20 08:17:52;;;;;;;;;22.67;22.00;;;;;20.65;44.83;101475.86;111907;1265;18732;-38
2023/04/20 08:20:20;;;;;;;;;20.00;18.00;;;;;20.67;44.83;101476.33;112094;1250;21103;-38
2023/04/20 08:22:48;;;;;;;;;18.67;16.00;;;;;20.69;44.92;101476.34;111890;1258;21600;-37
2023/04/20 08:25:15;;;;;;;;;22.00;19.00;;;;;20.72;44.77;101476.48;112096;1250;21018;-39
2023/04/20 08:27:42;;;;;;;;;22.00;19.00;;;;;20.77;44.80;101470.50;111620;1265;325342;-39
2023/04/20 08:30:10;;;;;;;;;19.00;18.00;;;;;20.81;44.96;101477.06;112101;1265;20348;-39
2023/04/20 08:32:38;;;;;;;;;19.00;18.50;;;;;20.80;44.94;101480.17;111881;1250;20017;-38
2023/04/20 08:35:06;;;;;;;;;15.00;15.00;;;;;20.82;44.80;101479.31;112012;1250;20741;-39
2023/04/20 08:37:33;;;;;;;;;18.50;18.50;;;;;20.84;44.92;101476.35;111793;1265;21605;-38
2023/04/20 08:40:01;;;;;;;;;23.00;22.00;;;;;20.86;44.77;101480.84;112033;1265;18857;-38
2023/04/20 08:42:28;;;;;;;;;30.00;26.00;;;;;20.77;44.27;101481.77;111783;1265;19151;-40
2023/04/20 08:44:56;;;;;;;;;25.00;25.00;;;;;20.71;43.96;101476.30;112000;1250;22795;-42
2023/04/20 08:47:23;;;;;;;;;30.00;25.00;;;;;20.66;43.59;101475.35;111780;1250;20037;-40
2023/04/20 08:49:51;;;;;;;;;25.00;24.00;;;;;20.59;43.64;101479.55;112020;1265;19477;-38
2023/04/20 08:52:18;;;;;;;;;25.00;24.00;;;;;20.56;43.13;101480.92;111836;1265;20038;-38
2023/04/20 08:54:45;;;;;;;;;27.50;24.50;;;;;20.54;42.87;101476.75;112025;1265;19984;-40
2023/04/20 08:57:13;;;;;;;;;21.00;19.00;;;;;20.58;42.76;101478.52;111919;1265;19886;-41
2023/04/20 08:59:40;;;;;;;;;26.00;22.00;;;;;20.61;42.78;101476.39;112070;1265;21966;-39
2023/04/20 09:02:08;;;;;;;;;22.00;21.00;;;;;20.66;43.20;101473.88;111863;1250;19982;-39
2023/04/20 09:04:35;;;;;;;;;24.00;21.00;;;;;20.72;43.29;101472.86;112096;1265;19498;-39
2023/04/20 09:07:03;;;;;;;;;22.00;21.00;;;;;20.78;43.38;101478.23;111879;1265;21437;-38
2023/04/20 09:09:30;;;;;;;;;18.33;18.33;;;;;20.81;43.54;101479.44;112072;1265;18788;-39
2023/04/20 09:11:57;;;;;;;;;18.00;15.00;;;;;20.83;43.77;101476.30;111888;1265;20810;-39
2023/04/20 09:14:25;;;;;;;;;17.00;17.00;;;;;20.88;44.02;101481.09;112101;1265;21467;-40
2023/04/20 09:16:52;;;;;;;;;18.00;16.00;;;;;20.89;44.32;101478.75;111942;1250;20173;-39
2023/04/20 09:19:20;;;;;;;;;17.33;17.33;;;;;20.89;44.17;101479.84;112014;1254;20814;-39
2023/04/20 09:21:47;;;;;;;;;21.00;19.00;;;;;20.90;44.42;101476.30;111943;1259;20122;-37
2023/04/20 09:24:15;;;;;;;;;21.00;19.00;;;;;20.88;44.21;101476.98;111967;1250;19930;-38
2023/04/20 09:26:42;;;;;;;;;19.00;18.00;;;;;20.88;44.45;101478.17;111948;1265;19636;-38
2023/04/20 09:29:10;;;;;;;;;19.00;19.00;;;;;20.88;44.49;101482.56;112042;1265;21480;-38
2023/04/20 09:31:37;;;;;;;;;19.00;18.00;;;;;20.85;44.42;101481.89;111933;1254;20136;-39
2023/04/20 09:34:05;;;;;;;;;18.50;18.50;;;;;20.86;44.73;101481.21;111977;1259;22050;-38
2023/04/20 09:36:32;;;;;;;;;15.50;15.00;;;;;20.86;44.63;101484.73;111954;1250;21620;-38
2023/04/20 09:39:00;;;;;;;;;16.00;15.33;;;;;20.83;44.77;101481.40;111840;1251;20100;-38
2023/04/20 09:41:27;;;;;;;;;20.33;19.00;;;;;20.86;44.63;101486.88;111933;1265;19410;-39
2023/04/20 09:43:54;;;;;;;;;13.00;13.00;;;;;20.86;44.64;101486.84;111864;1250;21572;-37
2023/04/20 09:46:22;;;;;;;;;13.00;13.00;;;;;20.84;44.53;101488.20;111961;1250;20011;-38
2023/04/20 09:48:49;;;;;;;;;22.67;19.67;;;;;20.83;44.80;101483.61;111793;1265;21208;-37
2023/04/20 09:51:17;;;;;;;;;26.00;21.00;;;;;20.86;45.22;101481.02;111989;1265;21389;-38
2023/04/20 09:53:44;;;;;;;;;23.50;20.00;;;;;20.89;45.85;101478.19;111816;1250;20113;-40
2023/04/20 09:56:12;;;;;;;;;18.00;15.00;;;;;20.89;45.55;101474.98;111964;1265;19546;-39
2023/04/20 09:58:39;;;;;;;;;19.00;18.00;;;;;20.86;45.24;101472.84;111770;1251;21598;-40
2023/04/20 10:01:07;;;;;;;;;16.00;15.00;;;;;20.86;44.96;101470.68;111955;1265;18745;-39
2023/04/20 10:03:34;;;;;;;;;18.00;16.00;;;;;20.87;45.09;101468.83;111769;1265;20839;-38
2023/04/20 10:06:02;;;;;;;;;18.50;17.00;;;;;20.86;44.78;101467.05;111957;1265;22862;-39
2023/04/20 10:08:29;;;;;;;;;18.00;15.00;;;;;20.85;44.54;101468.98;111778;1263;20062;-39
2023/04/20 10:10:57;;;;;;;;;16.00;15.00;;;;;20.83;44.46;101465.60;111972;1265;20764;-39
2023/04/20 10:13:24;;;;;;;;;19.00;16.00;;;;;20.86;44.57;101460.75;111787;1251;21687;-39
2023/04/20 10:15:52;;;;;;;;;19.67;18.00;;;;;20.87;44.48;101463.17;111998;1265;19919;-38
2023/04/20 10:18:19;;;;;;;;;18.00;15.00;;;;;20.88;44.58;101462.83;111751;1259;20999;-39
2023/04/20 10:20:46;;;;;;;;;17.00;15.50;;;;;20.77;43.93;101464.16;111820;1266;21452;-38
2023/04/20 10:23:15;;;;;;;;;13.00;12.50;;;;;20.55;43.20;101463.40;111526;1266;18818;-39
2023/04/20 10:25:44;;;;;;;;;15.00;13.00;;;;;20.43;43.22;101459.89;111727;1266;20978;-39
2023/04/20 10:28:11;;;;;;;;;13.00;12.50;;;;;20.58;43.51;101457.67;111866;1266;20339;-39
2023/04/20 10:30:40;;;;;;;;;13.00;12.00;;;;;20.70;43.72;101457.29;111532;1266;19289;-39
2023/04/20 10:33:07;;;;;;;;;15.00;12.00;;;;;20.76;43.77;101455.54;111711;1250;20771;-39
2023/04/20 10:35:34;;;;;;;;;15.00;13.00;;;;;20.81;44.21;101456.46;111641;1260;21882;-38
2023/04/20 10:38:02;;;;;;;;;15.00;13.00;;;;;20.86;44.55;101447.98;111763;1266;20002;-39
2023/04/20 10:40:30;;;;;;;;;15.00;13.00;;;;;20.90;44.89;101446.13;112053;1250;22414;-40
2023/04/20 10:42:57;;;;;;;;;9.33;9.33;;;;;20.94;44.85;101440.84;111782;1266;21507;-39
2023/04/20 10:45:25;;;;;;;;;11.33;10.00;;;;;20.95;45.36;101445.38;111944;1250;19953;-39
2023/04/20 10:47:52;;;;;;;;;12.00;10.00;;;;;20.95;45.49;101438.66;111746;1266;19627;-39
2023/04/20 10:50:19;;;;;;;;;10.00;10.00;;;;;20.94;45.51;101432.83;111681;1251;21605;-39
2023/04/20 10:52:48;;;;;;;;;12.00;10.00;;;;;20.94;45.78;101430.22;111742;1250;19967;-39
2023/04/20 10:55:16;;;;;;;;;10.00;10.00;;;;;20.98;45.89;101434.77;111928;1266;20735;-39
2023/04/20 10:57:43;;;;;;;;;14.00;12.00;;;;;20.94;45.75;101430.29;111627;1266;21527;-39
2023/04/20 11:00:10;;;;;;;;;10.00;9.33;;;;;20.93;45.82;101436.55;111963;1266;18785;-39
2023/04/20 11:02:38;;;;;;;;;11.33;10.00;;;;;20.91;45.72;101433.09;111648;1250;20965;-38
2023/04/20 11:05:06;;;;;;;;;9.00;8.00;;;;;20.93;45.71;101430.34;111976;1266;21488;-39
2023/04/20 11:07:33;;;;;;;;;12.00;12.00;;;;;20.90;45.77;101429.23;111607;1250;19971;-39
2023/04/20 11:10:00;;;;;;;;;12.00;11.00;;;;;20.83;44.40;101426.53;111916;1266;19418;-39